메인 페이지
METAR-TAF:

METAR-TAF

공항 :

Abraham Lincoln Capital Airport

스프링필드, 일리노이, 미국

위도: 39-50-43N, 경도: 089-41-02W, 고도: 182m

현재 날씨관측

예보는 11분 전, 13:52시(UTC)에 발표되었습니다.
북북동8kt
온도 3°C
습도 87%
기압 1026 hPa
시정: 16.1km
고도 3000ft 상공 흐림

METAR: KSPI 241352Z 03008KT 10SM OVC030 03/01 A3031 RMK AO2 SLP267 T00330011

시각: 09:03 (14:03 UTC)

예보

예보는 2 시간 43분 전, 11:20시(UTC)에 발표되었습니다.
예보 대상 시간: 24일 12시부터 25일 12시까지 (UTC)
7kt
시정: 10km
고도 3000ft 상공 구름 많음
일시적
24일 12시부터 24일 15시까지 (UTC)
고도 3500ft 상공 구름 보통
24일 1500시부터 (UTC)
북동8kt
시정: 10km
고도 4000ft 상공 구름 보통
25일 0600시부터 (UTC)
북동8kt
시정: 10km
고도 6000ft 상공 구름 많음

TAF: KSPI 241120Z 2412/2512 35007KT P6SM BKN030 TEMPO 2412/2415 SCT035 FM241500 05008KT P6SM SCT040 FM250600 05008KT P6SM BKN060

4,000개 이상의 공항 관측 자료 및 예보 (METAR 및 TAF 보고).

지도상에서 검색 가능한 기상관측소가 노란 점과 빨간 점으로 표시되어 있습니다.

기상관측소 명을 보려면 표시 위로 마우스를 이동하세요.

날씨 관측과 예보를 보려면 클릭하세요.

지도 변경 : 확대하려면 엑스 표시가 있는 녹색 버튼, 축소하려면 빼기 표시가 있는 녹색 버튼, 다음 페이지의 지도를 보려면 녹색 화살표를 클릭하세요.


METAR-TAF: